createdAt,value
2023-04-10T00:00:48.229Z,30.13
2023-04-10T00:03:18.226Z,31.57
2023-04-10T00:05:46.761Z,30.63
2023-04-10T00:08:15.238Z,31.03
2023-04-10T00:10:43.539Z,29.47
2023-04-10T00:13:11.814Z,34.87
2023-04-10T00:15:40.352Z,33.63
2023-04-10T00:18:10.390Z,39.67
2023-04-10T00:20:38.762Z,32.43
2023-04-10T00:23:08.097Z,32.27
2023-04-10T00:25:36.352Z,32.10
2023-04-10T00:28:04.776Z,34.83
2023-04-10T00:30:33.075Z,32.47
2023-04-10T00:33:01.438Z,33.70
2023-04-10T00:35:31.221Z,28.77
2023-04-10T00:37:59.488Z,32.97
2023-04-10T00:40:30.351Z,30.77
2023-04-10T00:42:58.877Z,34.33
2023-04-10T00:45:27.283Z,30.83
2023-04-10T00:47:56.339Z,29.27
2023-04-10T00:50:25.986Z,30.53
2023-04-10T00:52:56.020Z,35.30
2023-04-10T00:55:25.561Z,31.30
2023-04-10T00:57:56.755Z,32.67
2023-04-10T01:00:25.070Z,35.60
2023-04-10T01:02:53.613Z,38.33
2023-04-10T01:05:22.614Z,42.47
2023-04-10T01:08:14.706Z,40.97
2023-04-10T01:10:49.737Z,37.00
2023-04-10T01:13:24.221Z,37.33
2023-04-10T01:15:59.704Z,33.87
2023-04-10T01:18:33.105Z,37.00
2023-04-10T01:21:08.204Z,45.40
2023-04-10T01:24:05.889Z,43.07
2023-04-10T01:26:48.783Z,41.80
2023-04-10T01:29:20.814Z,48.17
2023-04-10T01:31:55.391Z,39.57
2023-04-10T01:34:33.879Z,35.73
2023-04-10T01:37:06.122Z,38.17
2023-04-10T01:39:39.008Z,40.23
2023-04-10T01:42:08.696Z,40.10
2023-04-10T01:44:43.074Z,38.63
2023-04-10T01:47:11.376Z,37.07
2023-04-10T01:49:44.835Z,37.07
2023-04-10T01:52:14.398Z,36.90
2023-04-10T01:54:45.659Z,39.30
2023-04-10T01:57:15.672Z,43.50
2023-04-10T02:02:15.174Z,34.37
2023-04-10T02:04:44.458Z,39.77
2023-04-10T02:07:18.057Z,34.43
2023-04-10T02:09:59.557Z,35.90
2023-04-10T02:12:33.183Z,37.70
2023-04-10T02:15:06.814Z,37.83
2023-04-10T02:17:37.341Z,34.93
2023-04-10T02:20:09.115Z,34.40
2023-04-10T02:22:38.285Z,43.43
2023-04-10T02:25:07.337Z,37.43
2023-04-10T02:27:37.679Z,44.03
2023-04-10T02:30:09.014Z,42.07
2023-04-10T02:32:38.197Z,40.10
2023-04-10T02:35:06.906Z,43.47
2023-04-10T02:37:36.095Z,48.33
2023-04-10T02:40:04.415Z,40.83
2023-04-10T02:42:32.674Z,40.83
2023-04-10T02:45:01.106Z,41.80
2023-04-10T02:47:31.083Z,44.80
2023-04-10T02:49:59.300Z,47.97
2023-04-10T02:52:27.667Z,49.30
2023-04-10T02:54:55.919Z,53.60
2023-04-10T02:57:24.317Z,57.17
2023-04-10T02:59:52.672Z,59.20
2023-04-10T03:02:21.972Z,57.93
2023-04-10T03:04:53.649Z,52.43
2023-04-10T03:07:22.305Z,46.27
2023-04-10T03:09:50.769Z,45.60
2023-04-10T03:12:20.465Z,51.73
2023-04-10T03:14:48.856Z,48.00
2023-04-10T03:17:17.240Z,52.40
2023-04-10T03:19:45.772Z,43.63
2023-04-10T03:22:15.450Z,41.10
2023-04-10T03:24:43.668Z,48.97
2023-04-10T03:27:11.962Z,40.83
2023-04-10T03:29:40.315Z,45.67
2023-04-10T03:32:08.629Z,41.97
2023-04-10T03:34:37.423Z,48.60
2023-04-10T03:37:05.663Z,56.87
2023-04-10T03:39:37.429Z,50.30
2023-04-10T03:42:05.917Z,54.93
2023-04-10T03:44:34.321Z,51.83
2023-04-10T03:47:02.602Z,50.40
2023-04-10T03:49:31.035Z,55.77
2023-04-10T03:51:59.340Z,51.23
2023-04-10T03:54:27.613Z,65.50
2023-04-10T03:56:57.307Z,57.23
2023-04-10T03:59:37.795Z,52.83
2023-04-10T04:02:08.385Z,60.03
2023-04-10T04:04:36.708Z,53.77
2023-04-10T04:07:04.850Z,56.70
2023-04-10T04:09:32.893Z,67.17
2023-04-10T04:12:02.376Z,53.17
2023-04-10T04:14:30.420Z,55.80
2023-04-10T04:16:58.497Z,59.17
2023-04-10T04:19:26.661Z,60.77
2023-04-10T04:21:54.651Z,62.00
2023-04-10T04:24:22.749Z,62.83
2023-04-10T04:26:50.773Z,52.07
2023-04-10T04:29:20.310Z,64.80
2023-04-10T04:31:48.387Z,55.67
2023-04-10T04:34:16.461Z,56.67
2023-04-10T04:36:44.456Z,60.40
2023-04-10T04:39:12.550Z,58.57
2023-04-10T04:41:40.710Z,53.47
2023-04-10T04:44:08.816Z,58.03
2023-04-10T04:46:38.234Z,54.87
2023-04-10T04:49:06.245Z,50.17
2023-04-10T04:51:35.856Z,56.27
2023-04-10T04:54:03.873Z,52.53
2023-04-10T04:56:31.974Z,48.60
2023-04-10T04:59:00.131Z,49.20
2023-04-10T05:01:28.379Z,54.43
2023-04-10T05:03:57.799Z,47.43
2023-04-10T05:06:26.231Z,56.90
2023-04-10T05:08:54.503Z,51.80
2023-04-10T05:11:22.926Z,50.63
2023-04-10T05:13:51.233Z,48.20
2023-04-10T05:16:19.350Z,40.47
2023-04-10T05:18:47.947Z,43.53
2023-04-10T05:21:17.388Z,41.73
2023-04-10T05:23:45.410Z,44.23
2023-04-10T05:26:13.436Z,38.90
2023-04-10T05:28:41.427Z,36.87
2023-04-10T05:31:09.550Z,40.50
2023-04-10T05:33:37.608Z,36.03
2023-04-10T05:36:06.430Z,38.37
2023-04-10T05:38:35.874Z,45.13
2023-04-10T05:41:04.024Z,36.40
2023-04-10T05:43:32.229Z,34.43
2023-04-10T05:46:00.356Z,37.57
2023-04-10T05:48:28.853Z,36.67
2023-04-10T05:50:56.840Z,36.60
2023-04-10T05:53:31.176Z,30.97
2023-04-10T05:56:01.995Z,31.23
2023-04-10T05:58:30.360Z,24.27
2023-04-10T06:00:58.890Z,22.90
2023-04-10T06:03:30.275Z,17.90
2023-04-10T06:05:58.756Z,24.63
2023-04-10T06:08:26.778Z,19.87
2023-04-10T06:10:54.848Z,21.87
2023-04-10T06:13:24.258Z,19.50
2023-04-10T06:15:52.637Z,21.03
2023-04-10T06:18:20.733Z,22.07
2023-04-10T06:20:48.719Z,29.07
2023-04-10T06:23:16.905Z,23.30
2023-04-10T06:25:45.023Z,20.17
2023-04-10T06:28:13.070Z,17.80
2023-04-10T06:30:42.462Z,17.77
2023-04-10T06:33:10.904Z,21.63
2023-04-10T06:35:38.995Z,19.93
2023-04-10T06:38:07.056Z,32.77
2023-04-10T06:40:35.130Z,29.93
2023-04-10T06:43:03.212Z,21.00
2023-04-10T06:45:31.261Z,28.73
2023-04-10T06:48:00.722Z,21.10
2023-04-10T06:50:29.425Z,27.20
2023-04-10T06:52:59.952Z,31.67
2023-04-10T06:55:28.051Z,29.50
2023-04-10T06:57:56.519Z,31.57
2023-04-10T07:00:25.128Z,29.60
2023-04-10T07:02:53.156Z,32.53
2023-04-10T07:05:22.797Z,32.70
2023-04-10T07:07:51.751Z,30.47
2023-04-10T07:10:19.803Z,28.23
2023-04-10T07:12:47.815Z,31.40
2023-04-10T07:15:16.212Z,28.80
2023-04-10T07:17:44.472Z,31.73
2023-04-10T07:20:13.264Z,30.27
2023-04-10T07:22:42.829Z,32.27
2023-04-10T07:25:11.980Z,32.33
2023-04-10T07:27:40.071Z,31.13
2023-04-10T07:30:10.085Z,31.10
2023-04-10T07:32:39.968Z,33.93
2023-04-10T07:35:09.000Z,34.70
2023-04-10T07:37:37.107Z,30.70
2023-04-10T07:40:07.632Z,32.57
2023-04-10T07:42:35.692Z,24.90
2023-04-10T07:45:03.732Z,34.50
2023-04-10T07:47:31.835Z,34.15
2023-04-10T07:50:00.039Z,31.80
2023-04-10T07:52:28.064Z,22.45
2023-04-10T07:54:56.169Z,20.75
2023-04-10T07:57:25.639Z,33.50
2023-04-10T07:59:54.939Z,27.40
2023-04-10T08:02:23.336Z,35.30
2023-04-10T08:04:51.824Z,35.20
2023-04-10T08:07:20.988Z,32.30
2023-04-10T08:09:49.260Z,34.20
2023-04-10T08:12:17.754Z,33.93
2023-04-10T08:14:47.330Z,36.13
2023-04-10T08:17:15.513Z,33.10
2023-04-10T08:19:44.052Z,36.50
2023-04-10T08:22:12.225Z,39.27
2023-04-10T08:24:40.461Z,39.17
2023-04-10T08:27:08.611Z,38.17
2023-04-10T08:29:36.688Z,35.93
2023-04-10T08:32:06.697Z,36.00
2023-04-10T08:34:34.810Z,33.97
2023-04-10T08:37:07.513Z,38.07
2023-04-10T08:39:36.410Z,40.87
2023-04-10T08:42:04.988Z,33.30
2023-04-10T08:44:33.208Z,38.03
2023-04-10T08:47:02.026Z,36.50
2023-04-10T08:49:39.138Z,36.07
2023-04-10T08:52:09.835Z,30.63
2023-04-10T08:54:40.144Z,33.93
2023-04-10T08:57:11.039Z,33.93
2023-04-10T08:59:39.367Z,33.93
2023-04-10T09:02:07.841Z,31.67
2023-04-10T09:04:38.162Z,25.73
2023-04-10T09:07:06.684Z,25.33
2023-04-10T09:09:34.732Z,31.27
2023-04-10T09:12:04.169Z,28.77
2023-04-10T09:14:34.119Z,33.03
2023-04-10T09:17:17.365Z,24.83
2023-04-10T09:19:47.829Z,30.20
2023-04-10T09:22:16.773Z,27.37
2023-04-10T09:24:46.747Z,27.03
2023-04-10T09:27:31.222Z,23.47
2023-04-10T09:29:59.885Z,25.53
2023-04-10T09:32:42.611Z,24.03
2023-04-10T09:35:14.081Z,17.87
2023-04-10T09:37:45.117Z,18.10
2023-04-10T09:40:23.040Z,19.10
2023-04-10T09:42:51.848Z,24.43
2023-04-10T09:45:20.877Z,23.80
2023-04-10T09:48:04.446Z,24.57
2023-04-10T09:50:39.896Z,25.97
2023-04-10T09:53:08.667Z,23.63
2023-04-10T09:55:37.971Z,21.87
2023-04-10T09:58:06.995Z,29.03
2023-04-10T10:00:40.118Z,23.83
2023-04-10T10:03:11.587Z,21.27
2023-04-10T10:05:43.311Z,20.97
2023-04-10T10:08:12.629Z,19.67
2023-04-10T10:10:46.944Z,21.93
2023-04-10T10:13:21.147Z,21.10
2023-04-10T10:15:55.369Z,19.60
2023-04-10T10:18:33.666Z,20.63
2023-04-10T10:21:05.934Z,17.77
2023-04-10T10:23:35.257Z,18.53
2023-04-10T10:26:07.285Z,24.73
2023-04-10T10:28:37.646Z,15.73
2023-04-10T10:31:06.744Z,14.87
2023-04-10T10:33:37.767Z,13.67
2023-04-10T10:36:10.833Z,17.57
2023-04-10T10:38:45.758Z,20.57
2023-04-10T10:41:19.611Z,19.97
2023-04-10T10:43:54.988Z,18.87
2023-04-10T10:46:33.684Z,15.07
2023-04-10T10:49:02.348Z,15.77
2023-04-10T10:51:48.930Z,18.90
2023-04-10T10:54:29.885Z,14.97
2023-04-10T10:56:58.374Z,15.03
2023-04-10T10:59:57.099Z,15.37
2023-04-10T11:02:25.605Z,13.93
2023-04-10T11:04:53.887Z,17.63
2023-04-10T11:07:23.494Z,13.23
2023-04-10T11:09:53.550Z,13.40
2023-04-10T11:12:23.886Z,14.90
2023-04-10T11:14:59.811Z,13.67
2023-04-10T11:17:50.670Z,14.53
2023-04-10T11:20:20.880Z,15.90
2023-04-10T11:23:10.652Z,14.00
2023-04-10T11:25:52.694Z,13.77
2023-04-10T11:28:35.964Z,10.40
2023-04-10T11:31:23.073Z,12.90
2023-04-10T11:34:01.893Z,12.63
2023-04-10T11:36:30.795Z,15.60
2023-04-10T11:39:02.644Z,12.07
2023-04-10T11:41:32.366Z,15.33
2023-04-10T11:44:01.824Z,15.20
2023-04-10T11:46:30.794Z,15.97
2023-04-10T11:49:01.214Z,11.73
2023-04-10T11:51:29.803Z,15.10
2023-04-10T11:54:09.610Z,11.57
2023-04-10T11:56:39.787Z,17.20
2023-04-10T11:59:10.982Z,16.67
2023-04-10T12:01:42.114Z,13.10
2023-04-10T12:04:18.522Z,15.90
2023-04-10T12:06:47.511Z,13.67
2023-04-10T12:09:18.091Z,12.20
2023-04-10T12:11:53.667Z,13.73
2023-04-10T12:14:22.765Z,14.67
2023-04-10T12:16:51.666Z,13.43
2023-04-10T12:19:20.712Z,10.43
2023-04-10T12:21:49.589Z,14.70
2023-04-10T12:24:43.461Z,12.73
2023-04-10T12:27:17.633Z,13.63
2023-04-10T12:29:46.430Z,12.30
2023-04-10T12:32:14.647Z,10.97
2023-04-10T12:34:42.841Z,11.87
2023-04-10T12:37:11.034Z,11.93
2023-04-10T12:39:40.115Z,11.47
2023-04-10T12:42:17.786Z,12.53
2023-04-10T12:44:53.228Z,10.73
2023-04-10T12:47:21.832Z,10.00
2023-04-10T12:50:08.277Z,14.80
2023-04-10T12:52:36.672Z,11.27
2023-04-10T12:55:12.212Z,11.73
2023-04-10T12:57:42.556Z,10.10
2023-04-10T13:00:12.734Z,7.80
2023-04-10T13:02:41.984Z,8.83
2023-04-10T13:05:11.132Z,8.60
2023-04-10T13:07:39.892Z,9.53
2023-04-10T13:10:09.309Z,10.47
2023-04-10T13:12:38.850Z,9.50
2023-04-10T13:15:10.839Z,8.70
2023-04-10T13:17:40.056Z,10.70
2023-04-10T13:20:10.466Z,11.33
2023-04-10T13:22:38.664Z,7.47
2023-04-10T13:25:07.491Z,8.90
2023-04-10T13:27:35.729Z,10.07
2023-04-10T13:30:03.867Z,9.70
2023-04-10T13:32:33.371Z,10.00
2023-04-10T13:35:01.509Z,9.50
2023-04-10T13:37:29.667Z,11.07
2023-04-10T13:39:57.795Z,13.33
2023-04-10T13:42:26.033Z,10.07
2023-04-10T13:44:54.180Z,11.33
2023-04-10T13:47:22.314Z,11.17
2023-04-10T13:49:51.782Z,10.50
2023-04-10T13:52:19.966Z,9.57
2023-04-10T13:54:48.119Z,10.20
2023-04-10T13:57:16.269Z,9.83
2023-04-10T13:59:44.415Z,10.53
2023-04-10T14:02:12.768Z,10.20
2023-04-10T14:04:42.695Z,14.50
2023-04-10T14:07:12.322Z,11.13
2023-04-10T14:09:40.783Z,11.13
2023-04-10T14:12:08.951Z,11.03
2023-04-10T14:14:37.195Z,9.93
2023-04-10T14:17:05.555Z,12.23
2023-04-10T14:19:35.005Z,10.50
2023-04-10T14:22:03.115Z,10.80
2023-04-10T14:24:32.719Z,13.57
2023-04-10T14:27:01.937Z,13.20
2023-04-10T14:32:01.368Z,9.70
2023-04-10T14:34:29.710Z,7.83
2023-04-10T14:36:58.733Z,7.57
2023-04-10T14:39:26.981Z,6.53
2023-04-10T14:41:57.074Z,9.13
2023-04-10T14:44:25.350Z,10.07
2023-04-10T14:46:53.542Z,8.47
2023-04-10T14:49:21.792Z,11.73
2023-04-10T14:51:50.443Z,10.03
2023-04-10T14:54:21.738Z,11.83
2023-04-10T14:56:50.174Z,10.57
2023-04-10T14:59:20.822Z,10.30
2023-04-10T15:01:49.201Z,10.57
2023-04-10T15:04:17.460Z,10.63
2023-04-10T15:06:45.876Z,11.10
2023-04-10T15:09:14.238Z,12.07
2023-04-10T15:11:42.496Z,11.33
2023-04-10T15:14:12.139Z,9.97
2023-04-10T15:16:42.013Z,10.17
2023-04-10T15:19:10.315Z,10.67
2023-04-10T15:21:38.478Z,15.70
2023-04-10T15:24:06.818Z,11.97
2023-04-10T15:26:35.698Z,10.83
2023-04-10T15:29:03.840Z,9.40
2023-04-10T15:31:32.106Z,9.43
2023-04-10T15:34:01.713Z,9.70
2023-04-10T15:36:29.957Z,9.87
2023-04-10T15:38:59.740Z,10.80
2023-04-10T15:41:28.222Z,10.40
2023-04-10T15:43:56.723Z,10.00
2023-04-10T15:46:25.407Z,8.73
2023-04-10T15:48:53.655Z,8.80
2023-04-10T15:51:23.166Z,7.40
2023-04-10T15:53:51.301Z,9.93
2023-04-10T15:56:19.508Z,7.80
2023-04-10T15:58:47.557Z,8.50
2023-04-10T16:01:15.768Z,9.00
2023-04-10T16:03:44.008Z,9.87
2023-04-10T16:06:12.426Z,8.37
2023-04-10T16:08:41.970Z,8.70
2023-04-10T16:11:10.101Z,8.57
2023-04-10T16:13:40.322Z,9.47
2023-04-10T16:16:15.423Z,8.93
2023-04-10T16:18:44.865Z,7.40
2023-04-10T16:21:14.262Z,7.20
2023-04-10T16:23:44.182Z,8.20
2023-04-10T16:26:12.595Z,7.63
2023-04-10T16:28:40.978Z,7.33
2023-04-10T16:31:09.354Z,7.67
2023-04-10T16:33:37.928Z,9.03
2023-04-10T16:36:07.212Z,8.30
2023-04-10T16:38:35.660Z,8.47
2023-04-10T16:41:06.478Z,8.67
2023-04-10T16:43:34.939Z,8.70
2023-04-10T16:46:03.731Z,8.77
2023-04-10T16:48:33.525Z,8.27
2023-04-10T16:51:06.313Z,8.07
2023-04-10T16:53:35.946Z,7.97
2023-04-10T16:56:05.963Z,8.07
2023-04-10T16:58:36.771Z,10.70
2023-04-10T17:01:15.825Z,9.07
2023-04-10T17:03:44.242Z,8.67
2023-04-10T17:06:12.809Z,14.00
2023-04-10T17:08:41.310Z,9.47
2023-04-10T17:11:12.726Z,10.70
2023-04-10T17:13:44.492Z,10.90
2023-04-10T17:16:13.192Z,7.87
2023-04-10T17:18:42.388Z,8.43
2023-04-10T17:21:13.243Z,7.60
2023-04-10T17:23:42.277Z,7.30
2023-04-10T17:26:16.368Z,9.03
2023-04-10T17:28:46.353Z,7.43
2023-04-10T17:31:15.789Z,7.13
2023-04-10T17:33:44.587Z,9.00
2023-04-10T17:36:14.195Z,6.50
2023-04-10T17:38:43.415Z,9.77
2023-04-10T17:41:15.218Z,8.00
2023-04-10T17:43:45.159Z,9.20
2023-04-10T17:46:17.118Z,9.13
2023-04-10T17:48:45.894Z,7.80
2023-04-10T17:51:14.475Z,8.20
2023-04-10T17:53:42.734Z,8.13
2023-04-10T17:56:21.914Z,8.33
2023-04-10T17:58:53.936Z,8.37
2023-04-10T18:01:23.629Z,8.60
2023-04-10T18:03:52.131Z,7.17
2023-04-10T18:06:20.999Z,10.67
2023-04-10T18:08:49.257Z,7.17
2023-04-10T18:11:17.610Z,10.23
2023-04-10T18:13:47.217Z,9.00
2023-04-10T18:16:17.572Z,7.80
2023-04-10T18:18:45.974Z,10.10
2023-04-10T18:21:14.492Z,7.53
2023-04-10T18:23:44.588Z,7.93
2023-04-10T18:26:13.439Z,9.03
2023-04-10T18:28:43.448Z,8.93
2023-04-10T18:31:14.835Z,8.33
2023-04-10T18:33:45.529Z,9.43
2023-04-10T18:36:16.604Z,8.27
2023-04-10T18:38:45.113Z,7.33
2023-04-10T18:41:13.346Z,9.67
2023-04-10T18:43:42.366Z,8.60
2023-04-10T18:46:14.091Z,8.53
2023-04-10T18:48:44.438Z,8.93
2023-04-10T18:51:13.103Z,9.63
2023-04-10T18:53:41.393Z,9.90
2023-04-10T18:56:10.189Z,8.90
2023-04-10T18:58:39.000Z,19.20
2023-04-10T19:01:07.948Z,17.23
2023-04-10T19:03:36.713Z,8.43
2023-04-10T19:06:10.864Z,8.87
2023-04-10T19:08:39.423Z,9.47
2023-04-10T19:11:08.609Z,10.23
2023-04-10T19:13:36.934Z,8.80
2023-04-10T19:16:06.223Z,8.70
2023-04-10T19:18:34.528Z,8.17
2023-04-10T19:21:02.859Z,9.13
2023-04-10T19:23:32.624Z,8.40
2023-04-10T19:26:01.088Z,8.97
2023-04-10T19:28:30.533Z,8.33
2023-04-10T19:30:58.908Z,8.50
2023-04-10T19:33:27.395Z,8.63
2023-04-10T19:35:56.130Z,7.40
2023-04-10T19:38:24.541Z,8.07
2023-04-10T19:40:54.873Z,7.47
2023-04-10T19:43:23.103Z,8.50
2023-04-10T19:45:52.922Z,8.37
2023-04-10T19:48:21.214Z,7.67
2023-04-10T19:50:49.572Z,10.90
2023-04-10T19:53:17.968Z,7.87
2023-04-10T19:55:46.224Z,7.77
2023-04-10T19:58:35.645Z,7.77
2023-04-10T20:01:05.381Z,8.07
2023-04-10T20:03:34.141Z,7.37
2023-04-10T20:06:04.240Z,7.50
2023-04-10T20:08:32.467Z,8.70
2023-04-10T20:11:00.716Z,9.73
2023-04-10T20:13:30.232Z,9.10
2023-04-10T20:15:58.500Z,7.47
2023-04-10T20:18:26.864Z,7.80
2023-04-10T20:20:55.372Z,7.80
2023-04-10T20:23:23.583Z,7.57
2023-04-10T20:25:51.702Z,7.93
2023-04-10T20:28:19.927Z,7.13
2023-04-10T20:30:49.574Z,7.17
2023-04-10T20:33:17.796Z,8.30
2023-04-10T20:35:45.901Z,7.47
2023-04-10T20:38:14.146Z,8.20
2023-04-10T20:40:42.233Z,7.37
2023-04-10T20:43:12.238Z,9.57
2023-04-10T20:45:40.859Z,9.33
2023-04-10T20:48:10.541Z,6.90
2023-04-10T20:50:42.825Z,7.27
2023-04-10T20:53:12.539Z,6.50
2023-04-10T20:55:41.126Z,7.43
2023-04-10T20:58:09.278Z,7.03
2023-04-10T21:00:37.630Z,6.47
2023-04-10T21:03:06.568Z,9.20
2023-04-10T21:05:40.964Z,8.73
2023-04-10T21:08:09.372Z,7.67
2023-04-10T21:10:43.891Z,8.43
2023-04-10T21:13:13.406Z,8.00
2023-04-10T21:15:41.620Z,8.00
2023-04-10T21:18:10.115Z,8.60
2023-04-10T21:20:39.757Z,7.87
2023-04-10T21:23:08.161Z,9.60
2023-04-10T21:25:37.114Z,8.00
2023-04-10T21:28:05.829Z,7.97
2023-04-10T21:30:34.096Z,7.53
2023-04-10T21:33:02.310Z,8.20
2023-04-10T21:35:30.613Z,9.67
2023-04-10T21:38:02.221Z,8.37
2023-04-10T21:40:34.318Z,7.03
2023-04-10T21:43:02.946Z,6.57
2023-04-10T21:45:31.523Z,9.67
2023-04-10T21:48:00.791Z,8.33
2023-04-10T21:50:29.023Z,6.87
2023-04-10T21:52:57.216Z,7.43
2023-04-10T21:55:26.883Z,7.00
2023-04-10T21:57:55.167Z,10.03
2023-04-10T22:00:23.366Z,10.60
2023-04-10T22:02:52.244Z,9.03
2023-04-10T22:05:20.653Z,7.50
2023-04-10T22:07:48.809Z,8.00
2023-04-10T22:10:17.430Z,8.93
2023-04-10T22:12:48.807Z,7.90
2023-04-10T22:15:17.993Z,8.20
2023-04-10T22:17:46.484Z,8.27
2023-04-10T22:20:15.015Z,9.20
2023-04-10T22:22:43.504Z,10.63
2023-04-10T22:25:12.065Z,8.20
2023-04-10T22:27:40.551Z,8.90
2023-04-10T22:30:12.054Z,8.90
2023-04-10T22:32:40.495Z,8.87
2023-04-10T22:35:09.999Z,9.10
2023-04-10T22:37:38.412Z,8.73
2023-04-10T22:40:09.626Z,7.13
2023-04-10T22:42:37.937Z,7.87
2023-04-10T22:45:07.213Z,7.53
2023-04-10T22:47:37.166Z,9.13
2023-04-10T22:50:07.600Z,8.50
2023-04-10T22:52:36.087Z,8.87
2023-04-10T22:55:07.110Z,8.37
2023-04-10T22:57:35.609Z,8.63
2023-04-10T23:00:04.435Z,7.90
2023-04-10T23:02:32.843Z,8.50
2023-04-10T23:05:03.019Z,9.43
2023-04-10T23:07:31.401Z,9.03
2023-04-10T23:09:59.926Z,10.73
2023-04-10T23:12:28.430Z,7.77
2023-04-10T23:14:56.846Z,10.00
2023-04-10T23:17:25.265Z,9.57
2023-04-10T23:19:53.536Z,9.17
2023-04-10T23:22:23.427Z,7.73
2023-04-10T23:24:54.972Z,8.57
2023-04-10T23:27:23.508Z,8.10
2023-04-10T23:29:51.934Z,8.70
2023-04-10T23:32:20.257Z,8.80
2023-04-10T23:34:48.519Z,9.00
2023-04-10T23:37:16.840Z,8.27
2023-04-10T23:39:46.598Z,9.57
2023-04-10T23:42:14.890Z,10.50
2023-04-10T23:44:43.322Z,8.80
2023-04-10T23:47:11.618Z,8.37
2023-04-10T23:49:39.905Z,9.07
2023-04-10T23:52:08.371Z,8.70
2023-04-10T23:54:36.837Z,8.13
2023-04-10T23:57:06.558Z,8.30
2023-04-10T23:59:35.049Z,8.83
